< < Back
Terminal Aerodrome Forecast


Current Version              Previous Versions:   1  2  3  4  5  6  7  8  9  

Terminal Aerodrome Forecast

908
FTUS42 KGSP 300527
TAFGSP
TAF
KGSP 300527Z 3006/3106 25003KT P6SM FEW060
      TEMPO 3010/3012 33004KT 5SM BR SCT024
     FM301700 23005KT P6SM BKN060 PROB30 3017/3021 4SM TSRA BKN040CB
     FM310000 35004KT P6SM BKN045
     FM310100 01003KT P6SM SCT050=



Latest METAR

430
SAUS70 KWBC 300600 RRK
MTRGSP
METAR KGSP 300553Z AUTO 00000KT 9SM CLR 24/23 A2999 RMK AO2 SLP140
T02440233 10289 20244 58006


USA.gov is the U.S. government's official web portal to all federal, state and local government web resources and services.